Terminal Aerodrome Forecast
Issued by NWS

Home | Current Version | Previous Version | Text Only | Print | Product List | Glossary On
Versions: 1 2 3 4 5 6 7 8 9 10 11 12 13 14
297
FTUS43 KMQT 222329
TAFSAW
TAF
KSAW 222329Z 2300/2324 03003KT 4SM BR VCSH OVC002
     FM230300 36007KT 4SM -RA BR OVC025
     FM230600 36011G18KT 1 1/2SM -SNRA OVC010
     FM230900 36012G21KT 2SM -DZSN OVC008
     FM231200 36010KT P6SM VCSH OVC010
     FM231500 36012G19KT P6SM BKN015
     FM232100 01010KT P6SM BKN025=

USA.gov is the U.S. government's official web portal to all federal, state and local government web resources and services.